sensor_id;sensor_type;location;lat;lon;timestamp;pressure;altitude;pressure_sealevel;temperature;humidity
21588;BME280;10956;48.878;13.316;2024-02-26T00:01:23;92700.22;;;3.29;100.00
21588;BME280;10956;48.878;13.316;2024-02-26T00:03:49;92691.34;;;3.30;100.00
21588;BME280;10956;48.878;13.316;2024-02-26T00:06:15;92690.56;;;3.30;100.00
21588;BME280;10956;48.878;13.316;2024-02-26T00:08:40;92683.56;;;3.30;100.00
21588;BME280;10956;48.878;13.316;2024-02-26T00:11:05;92681.19;;;3.23;100.00
21588;BME280;10956;48.878;13.316;2024-02-26T00:13:31;92691.09;;;3.21;100.00
21588;BME280;10956;48.878;13.316;2024-02-26T00:15:56;92680.41;;;3.18;100.00
21588;BME280;10956;48.878;13.316;2024-02-26T00:18:22;92678.84;;;3.17;100.00
21588;BME280;10956;48.878;13.316;2024-02-26T00:20:47;92671.03;;;3.17;100.00
21588;BME280;10956;48.878;13.316;2024-02-26T00:23:15;92662.19;;;3.18;100.00
21588;BME280;10956;48.878;13.316;2024-02-26T00:25:40;92662.19;;;3.18;100.00
21588;BME280;10956;48.878;13.316;2024-02-26T00:28:08;92662.16;;;3.13;100.00
21588;BME280;10956;48.878;13.316;2024-02-26T00:30:33;92658.00;;;3.12;100.00
21588;BME280;10956;48.878;13.316;2024-02-26T00:32:58;92653.31;;;3.09;100.00
21588;BME280;10956;48.878;13.316;2024-02-26T00:35:24;92660.06;;;3.10;100.00
21588;BME280;10956;48.878;13.316;2024-02-26T00:37:49;92659.56;;;3.08;100.00
21588;BME280;10956;48.878;13.316;2024-02-26T00:40:15;92652.00;;;3.06;100.00
21588;BME280;10956;48.878;13.316;2024-02-26T00:42:40;92643.69;;;3.09;100.00
21588;BME280;10956;48.878;13.316;2024-02-26T00:45:14;92641.88;;;3.10;100.00
21588;BME280;10956;48.878;13.316;2024-02-26T00:47:39;92643.41;;;3.06;100.00
21588;BME280;10956;48.878;13.316;2024-02-26T00:50:07;92637.69;;;3.09;100.00
21588;BME280;10956;48.878;13.316;2024-02-26T00:52:33;92643.69;;;3.09;100.00
21588;BME280;10956;48.878;13.316;2024-02-26T00:54:59;92641.88;;;3.10;100.00
21588;BME280;10956;48.878;13.316;2024-02-26T00:57:24;92636.66;;;3.10;100.00
21588;BME280;10956;48.878;13.316;2024-02-26T00:59:50;92636.13;;;3.08;100.00
21588;BME280;10956;48.878;13.316;2024-02-26T01:02:16;92626.25;;;3.10;100.00
21588;BME280;10956;48.878;13.316;2024-02-26T01:04:41;92631.19;;;3.11;100.00
21588;BME280;10956;48.878;13.316;2024-02-26T01:07:06;92629.63;;;3.10;100.00
21588;BME280;10956;48.878;13.316;2024-02-26T01:09:33;92626.50;;;3.08;100.00
21588;BME280;10956;48.878;13.316;2024-02-26T01:11:59;92621.81;;;3.05;100.00
21588;BME280;10956;48.878;13.316;2024-02-26T01:14:24;92616.84;;;2.99;100.00
21588;BME280;10956;48.878;13.316;2024-02-26T01:16:50;92617.91;;;3.03;100.00
21588;BME280;10956;48.878;13.316;2024-02-26T01:19:15;92607.50;;;3.03;100.00
21588;BME280;10956;48.878;13.316;2024-02-26T01:21:41;92607.75;;;3.06;100.00
21588;BME280;10956;48.878;13.316;2024-02-26T01:24:06;92608.81;;;3.05;100.00
21588;BME280;10956;48.878;13.316;2024-02-26T01:26:32;92598.13;;;3.07;100.00
21588;BME280;10956;48.878;13.316;2024-02-26T01:28:57;92604.38;;;3.06;100.00
21588;BME280;10956;48.878;13.316;2024-02-26T01:31:23;92602.81;;;3.10;100.00
21588;BME280;10956;48.878;13.316;2024-02-26T01:33:48;92601.78;;;3.16;100.00
21588;BME280;10956;48.878;13.316;2024-02-26T01:36:14;92608.31;;;3.23;100.00
21588;BME280;10956;48.878;13.316;2024-02-26T01:38:39;92606.22;;;3.31;100.00
21588;BME280;10956;48.878;13.316;2024-02-26T01:41:04;92602.06;;;3.40;100.00
21588;BME280;10956;48.878;13.316;2024-02-26T01:43:30;92599.22;;;3.41;99.55
21588;BME280;10956;48.878;13.316;2024-02-26T01:45:55;92601.81;;;3.36;100.00
21588;BME280;10956;48.878;13.316;2024-02-26T01:48:21;92614.28;;;3.24;100.00
21588;BME280;10956;48.878;13.316;2024-02-26T01:50:46;92614.28;;;3.14;100.00
21588;BME280;10956;48.878;13.316;2024-02-26T01:53:12;92613.75;;;3.07;100.00
21588;BME280;10956;48.878;13.316;2024-02-26T01:55:38;92609.56;;;3.01;100.00
21588;BME280;10956;48.878;13.316;2024-02-26T01:58:04;92610.59;;;2.95;100.00
21588;BME280;10956;48.878;13.316;2024-02-26T02:00:30;92618.41;;;2.89;100.00
21588;BME280;10956;48.878;13.316;2024-02-26T02:02:56;92614.22;;;2.83;100.00
21588;BME280;10956;48.878;13.316;2024-02-26T02:05:22;92619.94;;;2.80;100.00
21588;BME280;10956;48.878;13.316;2024-02-26T02:07:48;92615.25;;;2.77;100.00
21588;BME280;10956;48.878;13.316;2024-02-26T02:10:15;92617.84;;;2.77;100.00
21588;BME280;10956;48.878;13.316;2024-02-26T02:12:40;92613.13;;;2.69;100.00
21588;BME280;10956;48.878;13.316;2024-02-26T02:15:06;92612.31;;;2.58;100.00
21588;BME280;10956;48.878;13.316;2024-02-26T02:17:32;92615.16;;;2.52;100.00
21588;BME280;10956;48.878;13.316;2024-02-26T02:19:57;92614.34;;;2.46;100.00
21588;BME280;10956;48.878;13.316;2024-02-26T02:22:23;92609.66;;;2.43;100.00
21588;BME280;10956;48.878;13.316;2024-02-26T02:24:52;92604.22;;;2.45;100.00
21588;BME280;10956;48.878;13.316;2024-02-26T02:27:18;92608.13;;;2.47;100.00
21588;BME280;10956;48.878;13.316;2024-02-26T02:29:44;92603.19;;;2.51;100.00
21588;BME280;10956;48.878;13.316;2024-02-26T02:32:10;92609.44;;;2.50;100.00
21588;BME280;10956;48.878;13.316;2024-02-26T02:34:35;92606.31;;;2.48;100.00
21588;BME280;10956;48.878;13.316;2024-02-26T02:37:01;92608.63;;;2.44;100.00
21588;BME280;10956;48.878;13.316;2024-02-26T02:39:26;92604.22;;;2.50;100.00
21588;BME280;10956;48.878;13.316;2024-02-26T02:41:52;92609.94;;;2.47;100.00
21588;BME280;10956;48.878;13.316;2024-02-26T02:44:17;92604.75;;;2.47;100.00
21588;BME280;10956;48.878;13.316;2024-02-26T02:46:43;92603.69;;;2.48;100.00
21588;BME280;10956;48.878;13.316;2024-02-26T02:49:09;92608.38;;;2.46;100.00
21588;BME280;10956;48.878;13.316;2024-02-26T02:51:35;92606.31;;;2.48;100.00
21588;BME280;10956;48.878;13.316;2024-02-26T02:54:01;92608.34;;;2.41;100.00
21588;BME280;10956;48.878;13.316;2024-02-26T02:56:26;92611.72;;;2.36;100.00
21588;BME280;10956;48.878;13.316;2024-02-26T02:58:52;92607.78;;;2.29;100.00
21588;BME280;10956;48.878;13.316;2024-02-26T03:01:17;92602.28;;;2.20;100.00
21588;BME280;10956;48.878;13.316;2024-02-26T03:03:42;92600.97;;;2.17;100.00
21588;BME280;10956;48.878;13.316;2024-02-26T03:06:08;92599.13;;;2.13;100.00
21588;BME280;10956;48.878;13.316;2024-02-26T03:08:33;92603.53;;;2.12;100.00
21588;BME280;10956;48.878;13.316;2024-02-26T03:11:03;92600.41;;;2.10;100.00
21588;BME280;10956;48.878;13.316;2024-02-26T03:13:29;92593.66;;;2.09;100.00
21588;BME280;10956;48.878;13.316;2024-02-26T03:15:54;92595.72;;;2.07;100.00
21588;BME280;10956;48.878;13.316;2024-02-26T03:18:19;92589.53;;;2.13;100.00
21588;BME280;10956;48.878;13.316;2024-02-26T03:20:45;92593.19;;;2.22;100.00
21588;BME280;10956;48.878;13.316;2024-02-26T03:23:10;92589.09;;;2.32;100.00
21588;BME280;10956;48.878;13.316;2024-02-26T03:25:38;92587.00;;;2.29;100.00
21588;BME280;10956;48.878;13.316;2024-02-26T03:28:04;92577.66;;;2.33;100.00
21588;BME280;10956;48.878;13.316;2024-02-26T03:30:29;92578.94;;;2.30;100.00
21588;BME280;10956;48.878;13.316;2024-02-26T03:32:54;92581.28;;;2.32;100.00
21588;BME280;10956;48.878;13.316;2024-02-26T03:35:20;92590.63;;;2.28;100.00
21588;BME280;10956;48.878;13.316;2024-02-26T03:37:46;92579.69;;;2.20;100.00
21588;BME280;10956;48.878;13.316;2024-02-26T03:40:13;92579.13;;;2.13;100.00
21588;BME280;10956;48.878;13.316;2024-02-26T03:42:39;92582.25;;;2.15;100.00
21588;BME280;10956;48.878;13.316;2024-02-26T03:45:06;92584.59;;;2.17;100.00
21588;BME280;10956;48.878;13.316;2024-02-26T03:47:31;92577.84;;;2.16;100.00
21588;BME280;10956;48.878;13.316;2024-02-26T03:49:57;92575.22;;;2.11;100.00
21588;BME280;10956;48.878;13.316;2024-02-26T03:52:24;92576.00;;;2.11;100.00
21588;BME280;10956;48.878;13.316;2024-02-26T03:54:49;92578.09;;;2.14;100.00
21588;BME280;10956;48.878;13.316;2024-02-26T03:57:15;92575.25;;;2.21;100.00
21588;BME280;10956;48.878;13.316;2024-02-26T03:59:40;92578.38;;;2.23;100.00
21588;BME280;10956;48.878;13.316;2024-02-26T04:02:06;92579.16;;;2.18;100.00
21588;BME280;10956;48.878;13.316;2024-02-26T04:04:34;92579.13;;;2.13;100.00
21588;BME280;10956;48.878;13.316;2024-02-26T04:07:00;92579.91;;;2.14;100.00
21588;BME280;10956;48.878;13.316;2024-02-26T04:09:25;92586.41;;;2.16;100.00
21588;BME280;10956;48.878;13.316;2024-02-26T04:11:50;92577.59;;;2.22;100.00
21588;BME280;10956;48.878;13.316;2024-02-26T04:14:16;92583.34;;;2.30;100.00
21588;BME280;10956;48.878;13.316;2024-02-26T04:16:41;92584.41;;;2.34;100.00
21588;BME280;10956;48.878;13.316;2024-02-26T04:19:07;92581.06;;;2.38;100.00
21588;BME280;10956;48.878;13.316;2024-02-26T04:21:33;92584.41;;;2.34;100.00
21588;BME280;10956;48.878;13.316;2024-02-26T04:23:58;92584.94;;;2.36;100.00
21588;BME280;10956;48.878;13.316;2024-02-26T04:26:27;92582.34;;;2.41;99.15
21588;BME280;10956;48.878;13.316;2024-02-26T04:28:52;92583.41;;;2.45;97.90
21588;BME280;10956;48.878;13.316;2024-02-26T04:31:18;92586.53;;;2.42;96.88
21588;BME280;10956;48.878;13.316;2024-02-26T04:33:44;92591.72;;;2.42;96.92
21588;BME280;10956;48.878;13.316;2024-02-26T04:36:15;92590.16;;;2.41;96.06
21588;BME280;10956;48.878;13.316;2024-02-26T04:38:42;92598.47;;;2.38;97.06
21588;BME280;10956;48.878;13.316;2024-02-26T04:41:08;92595.28;;;2.25;99.18
21588;BME280;10956;48.878;13.316;2024-02-26T04:43:33;92609.28;;;2.14;100.00
21588;BME280;10956;48.878;13.316;2024-02-26T04:45:58;92604.28;;;2.03;100.00
21588;BME280;10956;48.878;13.316;2024-02-26T04:48:24;92604.75;;;1.94;100.00
21588;BME280;10956;48.878;13.316;2024-02-26T04:50:49;92596.69;;;1.91;100.00
21588;BME280;10956;48.878;13.316;2024-02-26T04:53:15;92600.31;;;1.90;100.00
21588;BME280;10956;48.878;13.316;2024-02-26T04:55:40;92602.13;;;1.89;100.00
21588;BME280;10956;48.878;13.316;2024-02-26T04:58:05;92591.47;;;1.91;100.00
21588;BME280;10956;48.878;13.316;2024-02-26T05:00:31;92593.03;;;1.92;100.00
21588;BME280;10956;48.878;13.316;2024-02-26T05:02:56;92594.59;;;1.93;100.00
21588;BME280;10956;48.878;13.316;2024-02-26T05:05:22;92583.97;;;1.94;100.00
21588;BME280;10956;48.878;13.316;2024-02-26T05:07:47;92573.59;;;2.00;100.00
21588;BME280;10956;48.878;13.316;2024-02-26T05:10:12;92576.44;;;1.98;100.00
21588;BME280;10956;48.878;13.316;2024-02-26T05:12:38;92580.09;;;2.02;100.00
21588;BME280;10956;48.878;13.316;2024-02-26T05:15:04;92582.72;;;2.02;100.00
21588;BME280;10956;48.878;13.316;2024-02-26T05:17:29;92583.22;;;1.99;100.00
21588;BME280;10956;48.878;13.316;2024-02-26T05:19:55;92581.66;;;1.98;100.00
21588;BME280;10956;48.878;13.316;2024-02-26T05:22:20;92583.22;;;1.99;99.78
21588;BME280;10956;48.878;13.316;2024-02-26T05:24:46;92586.88;;;2.03;99.45
21588;BME280;10956;48.878;13.316;2024-02-26T05:27:11;92586.91;;;2.08;99.32
21588;BME280;10956;48.878;13.316;2024-02-26T05:29:37;92586.13;;;2.08;99.67
21588;BME280;10956;48.878;13.316;2024-02-26T05:32:04;92580.63;;;2.04;99.96
21588;BME280;10956;48.878;13.316;2024-02-26T05:34:30;92587.94;;;2.07;100.00
21588;BME280;10956;48.878;13.316;2024-02-26T05:36:55;92588.97;;;2.06;100.00
21588;BME280;10956;48.878;13.316;2024-02-26T05:39:21;92581.41;;;2.05;100.00
21588;BME280;10956;48.878;13.316;2024-02-26T05:41:46;92587.41;;;2.05;100.00
21588;BME280;10956;48.878;13.316;2024-02-26T05:44:12;92587.41;;;2.05;100.00
21588;BME280;10956;48.878;13.316;2024-02-26T05:46:37;92583.78;;;2.11;100.00
21588;BME280;10956;48.878;13.316;2024-02-26T05:49:03;92584.84;;;2.15;99.09
21588;BME280;10956;48.878;13.316;2024-02-26T05:51:28;92588.50;;;2.19;98.62
21588;BME280;10956;48.878;13.316;2024-02-26T05:53:53;92588.50;;;2.19;98.82
21588;BME280;10956;48.878;13.316;2024-02-26T05:56:22;92592.66;;;2.20;99.33
21588;BME280;10956;48.878;13.316;2024-02-26T05:58:47;92589.56;;;2.23;99.50
21588;BME280;10956;48.878;13.316;2024-02-26T06:01:15;92592.69;;;2.25;99.32
21588;BME280;10956;48.878;13.316;2024-02-26T06:03:40;92604.13;;;2.24;99.19
21588;BME280;10956;48.878;13.316;2024-02-26T06:06:06;92602.56;;;2.23;98.58
21588;BME280;10956;48.878;13.316;2024-02-26T06:08:31;92604.38;;;2.23;98.43
21588;BME280;10956;48.878;13.316;2024-02-26T06:10:57;92604.09;;;2.19;99.13
21588;BME280;10956;48.878;13.316;2024-02-26T06:13:22;92614.50;;;2.19;99.90
21588;BME280;10956;48.878;13.316;2024-02-26T06:15:47;92610.31;;;2.13;100.00
21588;BME280;10956;48.878;13.316;2024-02-26T06:18:13;92620.16;;;2.11;100.00
21588;BME280;10956;48.878;13.316;2024-02-26T06:20:38;92616.78;;;2.11;100.00
21588;BME280;10956;48.878;13.316;2024-02-26T06:23:04;92619.13;;;2.12;100.00
21588;BME280;10956;48.878;13.316;2024-02-26T06:25:29;92618.41;;;2.22;100.00
21588;BME280;10956;48.878;13.316;2024-02-26T06:27:55;92629.63;;;2.33;100.00
21588;BME280;10956;48.878;13.316;2024-02-26T06:30:20;92628.13;;;2.42;100.00
21588;BME280;10956;48.878;13.316;2024-02-26T06:32:46;92626.59;;;2.51;100.00
21588;BME280;10956;48.878;13.316;2024-02-26T06:35:11;92628.16;;;2.52;100.00
21588;BME280;10956;48.878;13.316;2024-02-26T06:37:37;92629.22;;;2.56;100.00
21588;BME280;10956;48.878;13.316;2024-02-26T06:40:03;92632.88;;;2.65;99.89
21588;BME280;10956;48.878;13.316;2024-02-26T06:42:32;92632.91;;;2.70;99.28
21588;BME280;10956;48.878;13.316;2024-02-26T06:44:57;92633.97;;;2.74;98.31
21588;BME280;10956;48.878;13.316;2024-02-26T06:47:23;92635.53;;;2.80;97.76
21588;BME280;10956;48.878;13.316;2024-02-26T06:49:48;92630.34;;;2.85;97.15
21588;BME280;10956;48.878;13.316;2024-02-26T06:52:14;92629.59;;;2.90;95.43
21588;BME280;10956;48.878;13.316;2024-02-26T06:54:39;92637.16;;;2.97;95.56
21588;BME280;10956;48.878;13.316;2024-02-26T06:57:05;92632.75;;;3.02;95.15
21588;BME280;10956;48.878;13.316;2024-02-26T06:59:30;92642.63;;;3.05;95.29
21588;BME280;10956;48.878;13.316;2024-02-26T07:01:56;92646.81;;;3.11;94.87
21588;BME280;10956;48.878;13.316;2024-02-26T07:04:21;92640.84;;;3.21;94.42
21588;BME280;10956;48.878;13.316;2024-02-26T07:06:47;92643.97;;;3.33;93.51
21588;BME280;10956;48.878;13.316;2024-02-26T07:09:12;92642.94;;;3.39;92.89
21588;BME280;10956;48.878;13.316;2024-02-26T07:11:38;92637.22;;;3.52;91.51
21588;BME280;10956;48.878;13.316;2024-02-26T07:14:08;92644.00;;;3.59;90.82
21588;BME280;10956;48.878;13.316;2024-02-26T07:16:33;92633.06;;;3.72;89.72
21588;BME280;10956;48.878;13.316;2024-02-26T07:18:58;92634.09;;;3.81;87.97
21588;BME280;10956;48.878;13.316;2024-02-26T07:21:24;92633.56;;;3.89;88.06
21588;BME280;10956;48.878;13.316;2024-02-26T07:23:49;92638.78;;;3.94;89.22
21588;BME280;10956;48.878;13.316;2024-02-26T07:26:15;92627.84;;;3.97;90.09
21588;BME280;10956;48.878;13.316;2024-02-26T07:28:42;92636.19;;;3.99;89.95
21588;BME280;10956;48.878;13.316;2024-02-26T07:31:07;92629.91;;;4.05;89.06
21588;BME280;10956;48.878;13.316;2024-02-26T07:33:33;92627.81;;;4.12;88.50
21588;BME280;10956;48.878;13.316;2024-02-26T07:35:58;92632.75;;;4.19;86.55
21588;BME280;10956;48.878;13.316;2024-02-26T07:38:24;92627.25;;;4.26;85.66
21588;BME280;10956;48.878;13.316;2024-02-26T07:40:49;92624.91;;;4.29;85.25
21588;BME280;10956;48.878;13.316;2024-02-26T07:43:15;92627.75;;;4.33;86.36
21588;BME280;10956;48.878;13.316;2024-02-26T07:45:40;92629.84;;;4.36;88.13
21588;BME280;10956;48.878;13.316;2024-02-26T07:48:06;92630.88;;;4.40;88.73
21588;BME280;10956;48.878;13.316;2024-02-26T07:50:32;92634.25;;;4.45;87.86
21588;BME280;10956;48.878;13.316;2024-02-26T07:52:57;92638.66;;;4.55;86.02
21588;BME280;10956;48.878;13.316;2024-02-26T07:55:23;92652.19;;;4.62;85.48
21588;BME280;10956;48.878;13.316;2024-02-26T07:57:49;92648.00;;;4.71;84.80
21588;BME280;10956;48.878;13.316;2024-02-26T08:00:14;92647.69;;;4.78;84.53
21588;BME280;10956;48.878;13.316;2024-02-26T08:02:42;92652.91;;;4.83;84.70
21588;BME280;10956;48.878;13.316;2024-02-26T08:05:08;92654.44;;;4.89;84.73
21588;BME280;10956;48.878;13.316;2024-02-26T08:07:33;92655.72;;;4.97;83.98
21588;BME280;10956;48.878;13.316;2024-02-26T08:09:59;92655.66;;;5.07;85.22
21588;BME280;10956;48.878;13.316;2024-02-26T08:12:24;92655.63;;;5.17;86.50
21588;BME280;10956;48.878;13.316;2024-02-26T08:14:49;92659.22;;;5.26;87.34
21588;BME280;10956;48.878;13.316;2024-02-26T08:17:15;92662.88;;;5.25;88.60
21588;BME280;10956;48.878;13.316;2024-02-26T08:19:40;92658.44;;;5.26;89.76
21588;BME280;10956;48.878;13.316;2024-02-26T08:22:06;92661.03;;;5.31;89.51
21588;BME280;10956;48.878;13.316;2024-02-26T08:24:31;92664.38;;;5.36;85.17
21588;BME280;10956;48.878;13.316;2024-02-26T08:26:57;92670.09;;;5.43;83.67
21588;BME280;10956;48.878;13.316;2024-02-26T08:29:22;92672.63;;;5.54;82.05
21588;BME280;10956;48.878;13.316;2024-02-26T08:31:47;92679.63;;;5.63;81.29
21588;BME280;10956;48.878;13.316;2024-02-26T08:34:14;92675.97;;;5.64;81.74
21588;BME280;10956;48.878;13.316;2024-02-26T08:36:39;92676.50;;;5.61;83.30
21588;BME280;10956;48.878;13.316;2024-02-26T08:39:04;92688.53;;;5.62;84.24
21588;BME280;10956;48.878;13.316;2024-02-26T08:41:30;92680.97;;;5.61;85.03
21588;BME280;10956;48.878;13.316;2024-02-26T08:43:55;92679.94;;;5.57;84.85
21588;BME280;10956;48.878;13.316;2024-02-26T08:46:21;92682.75;;;5.65;84.49
21588;BME280;10956;48.878;13.316;2024-02-26T08:48:46;92681.34;;;5.78;84.41
21588;BME280;10956;48.878;13.316;2024-02-26T08:51:12;92684.94;;;5.87;84.31
21588;BME280;10956;48.878;13.316;2024-02-26T08:53:38;92695.91;;;5.94;84.64
21588;BME280;10956;48.878;13.316;2024-02-26T08:56:04;92690.69;;;5.94;85.70
21588;BME280;10956;48.878;13.316;2024-02-26T08:58:30;92683.34;;;5.96;86.50
21588;BME280;10956;48.878;13.316;2024-02-26T09:00:55;92685.38;;;6.04;86.72
21588;BME280;10956;48.878;13.316;2024-02-26T09:03:21;92684.97;;;6.21;85.96
21588;BME280;10956;48.878;13.316;2024-02-26T09:05:46;92687.72;;;6.35;85.75
21588;BME280;10956;48.878;13.316;2024-02-26T09:08:12;92692.00;;;5.92;88.45
21588;BME280;10956;48.878;13.316;2024-02-26T09:10:38;92682.31;;;5.92;89.13
21588;BME280;10956;48.878;13.316;2024-02-26T09:13:04;92692.16;;;6.05;88.38
21588;BME280;10956;48.878;13.316;2024-02-26T09:15:29;92690.19;;;6.21;88.51
21588;BME280;10956;48.878;13.316;2024-02-26T09:17:54;92689.78;;;6.38;88.85
21588;BME280;10956;48.878;13.316;2024-02-26T09:20:20;92688.03;;;6.57;88.73
21588;BME280;10956;48.878;13.316;2024-02-26T09:22:47;92679.69;;;6.79;88.09
21588;BME280;10956;48.878;13.316;2024-02-26T09:25:13;92684.91;;;7.03;86.56
21588;BME280;10956;48.878;13.316;2024-02-26T09:27:38;92682.00;;;7.28;85.38
21588;BME280;10956;48.878;13.316;2024-02-26T09:30:04;92683.50;;;7.53;84.69
21588;BME280;10956;48.878;13.316;2024-02-26T09:32:29;92689.25;;;7.74;85.35
21588;BME280;10956;48.878;13.316;2024-02-26T09:34:55;92686.81;;;7.96;83.15
21588;BME280;10956;48.878;13.316;2024-02-26T09:37:21;92690.75;;;8.13;81.16
21588;BME280;10956;48.878;13.316;2024-02-26T09:39:46;92691.00;;;8.30;81.21
21588;BME280;10956;48.878;13.316;2024-02-26T09:42:13;92687.28;;;8.50;81.38
21588;BME280;10956;48.878;13.316;2024-02-26T09:44:40;92699.28;;;8.69;80.03
21588;BME280;10956;48.878;13.316;2024-02-26T09:47:10;92702.03;;;8.92;78.29
21588;BME280;10956;48.878;13.316;2024-02-26T09:49:36;92705.72;;;9.18;77.99
21588;BME280;10956;48.878;13.316;2024-02-26T09:52:04;92705.13;;;9.35;74.19
21588;BME280;10956;48.878;13.316;2024-02-26T09:54:30;92702.59;;;9.44;74.06
21588;BME280;10956;48.878;13.316;2024-02-26T09:56:59;92709.78;;;9.52;73.07
21588;BME280;10956;48.878;13.316;2024-02-26T09:59:27;92713.09;;;9.57;70.30
21588;BME280;10956;48.878;13.316;2024-02-26T10:01:53;92709.56;;;9.76;70.89
21588;BME280;10956;48.878;13.316;2024-02-26T10:04:20;92712.75;;;9.86;72.19
21588;BME280;10956;48.878;13.316;2024-02-26T10:06:46;92713.22;;;9.88;73.13
21588;BME280;10956;48.878;13.316;2024-02-26T10:09:12;92704.97;;;9.81;72.44
21588;BME280;10956;48.878;13.316;2024-02-26T10:11:40;92709.75;;;9.79;72.64
21588;BME280;10956;48.878;13.316;2024-02-26T10:14:08;92710.16;;;9.73;70.49
21588;BME280;10956;48.878;13.316;2024-02-26T10:16:33;92696.81;;;9.69;69.76
21588;BME280;10956;48.878;13.316;2024-02-26T10:18:59;92701.00;;;9.70;70.65
21588;BME280;10956;48.878;13.316;2024-02-26T10:21:25;92698.06;;;9.71;68.08
21588;BME280;10956;48.878;13.316;2024-02-26T10:23:51;92701.97;;;9.74;67.51
21588;BME280;10956;48.878;13.316;2024-02-26T10:26:17;92700.78;;;9.80;68.58
21588;BME280;10956;48.878;13.316;2024-02-26T10:28:43;92712.22;;;9.98;68.30
21588;BME280;10956;48.878;13.316;2024-02-26T10:31:10;92708.88;;;10.06;66.82
21588;BME280;10956;48.878;13.316;2024-02-26T10:33:37;92710.03;;;10.14;66.96
21588;BME280;10956;48.878;13.316;2024-02-26T10:36:06;92693.53;;;10.22;67.21
21588;BME280;10956;48.878;13.316;2024-02-26T10:38:34;92698.34;;;10.20;65.52
21588;BME280;10956;48.878;13.316;2024-02-26T10:41:02;92701.31;;;10.27;64.16
21588;BME280;10956;48.878;13.316;2024-02-26T10:43:27;92705.75;;;10.40;64.58
21588;BME280;10956;48.878;13.316;2024-02-26T10:45:55;92694.84;;;10.55;64.65
21588;BME280;10956;48.878;13.316;2024-02-26T10:48:21;92694.47;;;10.71;63.90
21588;BME280;10956;48.878;13.316;2024-02-26T10:50:47;92704.75;;;10.81;65.93
21588;BME280;10956;48.878;13.316;2024-02-26T10:53:16;92701.16;;;10.77;68.42
21588;BME280;10956;48.878;13.316;2024-02-26T10:55:46;92693.25;;;10.77;68.83
21588;BME280;10956;48.878;13.316;2024-02-26T10:58:12;92695.94;;;10.85;69.08
21588;BME280;10956;48.878;13.316;2024-02-26T11:00:39;92699.41;;;11.03;69.29
21588;BME280;10956;48.878;13.316;2024-02-26T11:03:05;92699.75;;;11.10;69.10
21588;BME280;10956;48.878;13.316;2024-02-26T11:05:33;92701.78;;;11.13;71.30
21588;BME280;10956;48.878;13.316;2024-02-26T11:08:00;92701.91;;;11.08;71.80
21588;BME280;10956;48.878;13.316;2024-02-26T11:10:29;92709.22;;;11.11;72.69
21588;BME280;10956;48.878;13.316;2024-02-26T11:12:56;92704.41;;;11.13;72.89
21588;BME280;10956;48.878;13.316;2024-02-26T11:15:23;92692.03;;;11.22;72.33
21588;BME280;10956;48.878;13.316;2024-02-26T11:17:50;92699.53;;;11.38;72.37
21588;BME280;10956;48.878;13.316;2024-02-26T11:20:17;92700.03;;;11.57;72.21
21588;BME280;10956;48.878;13.316;2024-02-26T11:22:44;92694.47;;;11.67;71.28
21588;BME280;10956;48.878;13.316;2024-02-26T11:25:10;92693.56;;;11.72;69.37
21588;BME280;10956;48.878;13.316;2024-02-26T11:27:54;92698.53;;;11.73;68.90
21588;BME280;10956;48.878;13.316;2024-02-26T11:30:24;92691.69;;;11.63;65.44
21588;BME280;10956;48.878;13.316;2024-02-26T11:32:52;92691.81;;;11.58;64.62
21588;BME280;10956;48.878;13.316;2024-02-26T11:35:18;92695.53;;;11.49;64.48
21588;BME280;10956;48.878;13.316;2024-02-26T11:37:57;92696.16;;;11.46;63.60
21588;BME280;10956;48.878;13.316;2024-02-26T11:40:26;92687.75;;;11.44;63.71
21588;BME280;10956;48.878;13.316;2024-02-26T11:42:53;92688.22;;;11.37;63.34
21588;BME280;10956;48.878;13.316;2024-02-26T11:48:03;92680.94;;;11.43;63.54
21588;BME280;10956;48.878;13.316;2024-02-26T11:50:36;92686.22;;;11.51;64.79
21588;BME280;10956;48.878;13.316;2024-02-26T11:53:22;92690.28;;;11.66;65.72
21588;BME280;10956;48.878;13.316;2024-02-26T11:55:48;92689.06;;;11.72;65.08
21588;BME280;10956;48.878;13.316;2024-02-26T11:58:17;92700.91;;;11.83;64.76
21588;BME280;10956;48.878;13.316;2024-02-26T12:00:42;92690.66;;;11.90;62.96
21588;BME280;10956;48.878;13.316;2024-02-26T12:03:08;92693.00;;;12.01;61.32
21588;BME280;10956;48.878;13.316;2024-02-26T12:05:35;92686.00;;;12.05;58.60
21588;BME280;10956;48.878;13.316;2024-02-26T12:08:04;92691.75;;;12.07;56.54
21588;BME280;10956;48.878;13.316;2024-02-26T12:13:10;92676.06;;;12.02;55.01
21588;BME280;10956;48.878;13.316;2024-02-26T12:15:39;92679.78;;;12.01;53.86
21588;BME280;10956;48.878;13.316;2024-02-26T12:18:06;92685.53;;;11.94;51.37
21588;BME280;10956;48.878;13.316;2024-02-26T12:20:38;92688.47;;;11.92;51.97
21588;BME280;10956;48.878;13.316;2024-02-26T12:23:04;92692.34;;;11.78;51.95
21588;BME280;10956;48.878;13.316;2024-02-26T12:25:30;92688.13;;;11.68;53.56
21588;BME280;10956;48.878;13.316;2024-02-26T12:27:56;92691.53;;;11.60;54.28
21588;BME280;10956;48.878;13.316;2024-02-26T12:30:23;92686.84;;;11.57;52.63
21588;BME280;10956;48.878;13.316;2024-02-26T12:32:50;92691.34;;;11.56;51.98
21588;BME280;10956;48.878;13.316;2024-02-26T12:35:16;92698.03;;;11.54;52.60
21588;BME280;10956;48.878;13.316;2024-02-26T12:37:45;92692.75;;;11.54;52.42
21588;BME280;10956;48.878;13.316;2024-02-26T12:40:11;92687.00;;;11.52;52.25
21588;BME280;10956;48.878;13.316;2024-02-26T12:42:38;92690.41;;;11.52;53.98
21588;BME280;10956;48.878;13.316;2024-02-26T12:45:09;92688.09;;;11.51;56.26
21588;BME280;10956;48.878;13.316;2024-02-26T12:47:44;92686.38;;;11.46;55.70
21588;BME280;10956;48.878;13.316;2024-02-26T12:50:15;92687.59;;;11.40;55.63
21588;BME280;10956;48.878;13.316;2024-02-26T12:52:45;92686.50;;;11.32;55.50